createdAt,value
2022-07-29T00:00:04.645Z,67.61
2022-07-29T00:02:34.020Z,67.95
2022-07-29T00:05:01.870Z,68.25
2022-07-29T00:07:29.561Z,68.51
2022-07-29T00:09:58.022Z,68.93
2022-07-29T00:12:27.163Z,69.19
2022-07-29T00:14:57.235Z,69.73
2022-07-29T00:17:26.164Z,70.04
2022-07-29T00:19:54.029Z,69.93
2022-07-29T00:22:22.448Z,70.13
2022-07-29T00:24:51.195Z,70.43
2022-07-29T00:27:19.634Z,70.60
2022-07-29T00:29:47.383Z,71.34
2022-07-29T00:32:15.213Z,70.91
2022-07-29T00:35:01.614Z,71.58
2022-07-29T00:37:29.364Z,71.29
2022-07-29T00:39:57.078Z,71.31
2022-07-29T00:42:24.772Z,71.42
2022-07-29T00:44:52.537Z,71.36
2022-07-29T00:47:20.254Z,71.83
2022-07-29T00:49:48.041Z,71.88
2022-07-29T00:52:16.926Z,71.83
2022-07-29T00:54:45.155Z,72.19
2022-07-29T00:57:13.889Z,71.78
2022-07-29T00:59:42.661Z,71.48
2022-07-29T01:02:10.487Z,71.11
2022-07-29T01:04:38.371Z,71.00
2022-07-29T01:07:06.423Z,70.72
2022-07-29T01:09:46.035Z,70.72
2022-07-29T01:12:18.808Z,70.91
2022-07-29T01:14:47.921Z,71.41
2022-07-29T01:17:41.096Z,70.92
2022-07-29T01:20:39.328Z,71.34
2022-07-29T01:23:23.453Z,71.50
2022-07-29T01:26:05.979Z,72.21
2022-07-29T01:28:57.389Z,72.08
2022-07-29T01:31:46.407Z,73.05
2022-07-29T01:34:36.843Z,72.89
2022-07-29T01:37:09.921Z,73.09
2022-07-29T01:39:40.459Z,73.48
2022-07-29T01:42:20.168Z,73.81
2022-07-29T01:45:13.488Z,74.02
2022-07-29T01:47:45.429Z,74.60
2022-07-29T01:50:16.785Z,74.57
2022-07-29T01:52:58.031Z,74.71
2022-07-29T01:55:30.518Z,75.20
2022-07-29T01:58:01.025Z,75.49
2022-07-29T02:00:30.442Z,75.50
2022-07-29T02:02:59.007Z,75.89
2022-07-29T02:05:30.641Z,75.77
2022-07-29T02:08:00.622Z,76.26
2022-07-29T02:10:31.921Z,76.43
2022-07-29T02:13:01.716Z,76.59
2022-07-29T02:15:32.718Z,77.00
2022-07-29T02:18:06.975Z,77.79
2022-07-29T02:20:35.869Z,77.28
2022-07-29T02:23:04.485Z,77.61
2022-07-29T02:25:37.452Z,77.18
2022-07-29T02:28:09.886Z,77.54
2022-07-29T02:30:44.126Z,78.19
2022-07-29T02:33:15.127Z,77.40
2022-07-29T02:35:45.438Z,77.25
2022-07-29T02:38:35.735Z,77.08
2022-07-29T02:41:08.213Z,77.16
2022-07-29T02:43:37.793Z,77.12
2022-07-29T02:46:12.798Z,77.13
2022-07-29T02:49:09.067Z,77.61
2022-07-29T02:51:47.240Z,77.63
2022-07-29T02:54:44.756Z,77.90
2022-07-29T02:57:30.050Z,78.01
2022-07-29T03:00:01.075Z,78.14
2022-07-29T03:02:30.665Z,78.66
2022-07-29T03:05:01.635Z,78.67
2022-07-29T03:07:30.421Z,78.63
2022-07-29T03:09:58.901Z,78.35
2022-07-29T03:12:27.858Z,78.50
2022-07-29T03:14:56.285Z,78.50
2022-07-29T03:17:24.389Z,78.78
2022-07-29T03:19:52.368Z,79.17
2022-07-29T03:22:20.389Z,78.77
2022-07-29T03:24:48.326Z,78.77
2022-07-29T03:27:16.214Z,78.86
2022-07-29T03:29:46.338Z,79.03
2022-07-29T03:32:22.380Z,79.44
2022-07-29T03:34:52.928Z,79.90
2022-07-29T03:37:20.595Z,80.12
2022-07-29T03:39:50.308Z,81.00
2022-07-29T03:42:20.705Z,81.84
2022-07-29T03:44:50.958Z,82.66
2022-07-29T03:47:39.288Z,82.00
2022-07-29T03:50:15.239Z,83.06
2022-07-29T03:52:43.474Z,81.81
2022-07-29T03:55:13.867Z,81.63
2022-07-29T03:57:42.358Z,81.96
2022-07-29T04:00:10.943Z,81.58
2022-07-29T04:02:40.557Z,81.50
2022-07-29T04:05:14.663Z,81.59
2022-07-29T04:07:46.297Z,81.75
2022-07-29T04:10:14.235Z,81.93
2022-07-29T04:12:42.242Z,80.77
2022-07-29T04:15:10.750Z,80.79
2022-07-29T04:17:38.490Z,80.06
2022-07-29T04:20:07.313Z,79.75
2022-07-29T04:22:35.052Z,79.94
2022-07-29T04:25:04.204Z,79.53
2022-07-29T04:27:32.207Z,79.59
2022-07-29T04:30:00.000Z,79.67
2022-07-29T04:32:28.378Z,79.69
2022-07-29T04:34:56.056Z,79.84
2022-07-29T04:37:23.784Z,80.05
2022-07-29T04:39:51.461Z,80.49
2022-07-29T04:42:19.148Z,80.52
2022-07-29T04:44:55.335Z,81.21
2022-07-29T04:47:23.037Z,81.22
2022-07-29T04:49:50.708Z,81.06
2022-07-29T04:52:18.369Z,81.24
2022-07-29T04:54:46.069Z,81.94
2022-07-29T04:57:13.711Z,81.12
2022-07-29T04:59:41.426Z,81.14
2022-07-29T05:02:09.089Z,81.18
2022-07-29T05:04:36.781Z,81.14
2022-07-29T05:07:04.539Z,81.15
2022-07-29T05:09:34.235Z,81.43
2022-07-29T05:12:01.907Z,81.59
2022-07-29T05:14:29.843Z,81.70
2022-07-29T05:16:59.128Z,81.86
2022-07-29T05:19:26.950Z,82.20
2022-07-29T05:21:54.609Z,81.68
2022-07-29T05:24:22.314Z,82.26
2022-07-29T05:26:50.042Z,81.54
2022-07-29T05:29:44.322Z,81.54
2022-07-29T05:32:06.395Z,81.20
2022-07-29T05:34:34.276Z,81.09
2022-07-29T05:37:02.006Z,81.10
2022-07-29T05:39:47.287Z,80.92
2022-07-29T05:42:16.968Z,80.89
2022-07-29T05:44:44.771Z,80.86
2022-07-29T05:47:12.534Z,80.84
2022-07-29T05:49:40.599Z,80.72
2022-07-29T05:52:08.325Z,80.76
2022-07-29T05:54:36.615Z,80.82
2022-07-29T05:57:05.035Z,81.26
2022-07-29T05:59:33.136Z,80.94
2022-07-29T06:02:00.851Z,80.94
2022-07-29T06:04:28.789Z,80.84
2022-07-29T06:06:57.100Z,81.06
2022-07-29T06:09:24.934Z,81.11
2022-07-29T06:11:52.632Z,81.43
2022-07-29T06:14:20.515Z,81.09
2022-07-29T06:16:48.398Z,81.04
2022-07-29T06:19:16.114Z,81.08
2022-07-29T06:21:45.611Z,81.01
2022-07-29T06:24:18.174Z,81.07
2022-07-29T06:26:46.332Z,81.12
2022-07-29T06:29:14.054Z,81.12
2022-07-29T06:31:41.835Z,81.15
2022-07-29T06:34:09.688Z,81.19
2022-07-29T06:36:39.720Z,81.12
2022-07-29T06:39:11.671Z,81.31
2022-07-29T06:41:40.084Z,81.23
2022-07-29T06:44:07.824Z,81.14
2022-07-29T06:46:35.708Z,81.14
2022-07-29T06:49:04.330Z,81.32
2022-07-29T06:51:32.046Z,81.37
2022-07-29T06:54:12.865Z,81.13
2022-07-29T06:56:43.219Z,81.05
2022-07-29T06:59:12.313Z,80.92
2022-07-29T07:01:42.943Z,80.81
2022-07-29T07:04:13.897Z,80.61
2022-07-29T07:06:41.738Z,80.74
2022-07-29T07:09:09.487Z,80.67
2022-07-29T07:11:37.403Z,80.96
2022-07-29T07:14:05.135Z,81.30
2022-07-29T07:16:33.679Z,81.67
2022-07-29T07:19:01.982Z,81.27
2022-07-29T07:21:30.476Z,81.45
2022-07-29T07:23:58.770Z,81.42
2022-07-29T07:26:27.212Z,81.31
2022-07-29T07:28:55.147Z,81.29
2022-07-29T07:31:22.855Z,81.17
2022-07-29T07:33:50.644Z,81.07
2022-07-29T07:36:18.300Z,81.25
2022-07-29T07:38:46.070Z,81.27
2022-07-29T07:41:13.721Z,81.15
2022-07-29T07:43:41.493Z,82.28
2022-07-29T07:46:09.229Z,80.88
2022-07-29T07:48:38.051Z,80.51
2022-07-29T07:51:05.804Z,80.36
2022-07-29T07:53:33.480Z,80.21
2022-07-29T07:56:17.239Z,80.04
2022-07-29T07:58:45.065Z,79.67
2022-07-29T08:01:12.990Z,78.93
2022-07-29T08:03:40.921Z,78.12
2022-07-29T08:06:08.767Z,77.52
2022-07-29T08:08:36.498Z,77.05
2022-07-29T08:11:09.586Z,76.76
2022-07-29T08:13:39.746Z,75.82
2022-07-29T08:16:14.624Z,75.42
2022-07-29T08:18:43.669Z,73.90
2022-07-29T08:21:11.610Z,73.78
2022-07-29T08:23:52.711Z,73.69
2022-07-29T08:26:24.523Z,73.54
2022-07-29T08:28:52.943Z,73.50
2022-07-29T08:31:20.629Z,73.34
2022-07-29T08:33:48.328Z,73.09
2022-07-29T08:36:16.003Z,72.97
2022-07-29T08:38:43.759Z,72.60
2022-07-29T08:41:11.547Z,72.47
2022-07-29T08:43:40.216Z,72.25
2022-07-29T08:46:08.071Z,72.14
2022-07-29T08:48:36.314Z,72.02
2022-07-29T08:51:04.569Z,71.60
2022-07-29T08:53:33.689Z,71.42
2022-07-29T08:56:02.015Z,71.47
2022-07-29T08:58:34.473Z,71.41
2022-07-29T09:01:07.661Z,71.05
2022-07-29T09:03:41.867Z,71.20
2022-07-29T09:06:10.208Z,71.06
2022-07-29T09:08:37.959Z,71.09
2022-07-29T09:11:05.867Z,70.49
2022-07-29T09:13:33.813Z,69.92
2022-07-29T09:16:05.695Z,69.54
2022-07-29T09:18:44.655Z,69.13
2022-07-29T09:21:36.626Z,68.63
2022-07-29T09:24:12.261Z,67.99
2022-07-29T09:26:43.952Z,67.74
2022-07-29T09:29:22.055Z,67.93
2022-07-29T09:31:53.413Z,67.51
2022-07-29T09:34:30.523Z,67.93
2022-07-29T09:36:58.633Z,68.09
2022-07-29T09:39:47.681Z,68.67
2022-07-29T09:42:16.790Z,69.35
2022-07-29T09:44:50.474Z,69.57
2022-07-29T09:47:20.162Z,70.28
2022-07-29T09:50:02.877Z,70.53
2022-07-29T09:52:31.867Z,70.79
2022-07-29T09:55:13.652Z,70.98
2022-07-29T09:57:46.297Z,71.76
2022-07-29T10:00:20.058Z,72.00
2022-07-29T10:02:49.162Z,72.08
2022-07-29T10:05:21.744Z,71.82
2022-07-29T10:07:58.564Z,72.05
2022-07-29T10:10:31.415Z,72.00
2022-07-29T10:13:08.065Z,71.87
2022-07-29T10:15:45.320Z,70.52
2022-07-29T10:18:15.402Z,69.00
2022-07-29T10:20:43.543Z,68.36
2022-07-29T10:23:11.431Z,68.34
2022-07-29T10:25:39.268Z,68.45
2022-07-29T10:28:07.933Z,68.03
2022-07-29T10:30:35.952Z,67.43
2022-07-29T10:33:18.441Z,64.49
2022-07-29T10:35:53.670Z,64.62
2022-07-29T10:38:24.924Z,65.47
2022-07-29T10:41:29.051Z,65.55
2022-07-29T10:44:14.765Z,64.71
2022-07-29T10:46:46.113Z,65.46
2022-07-29T10:49:25.015Z,64.69
2022-07-29T10:51:57.074Z,64.73
2022-07-29T10:54:45.696Z,64.86
2022-07-29T10:57:14.861Z,64.48
2022-07-29T10:59:48.212Z,64.69
2022-07-29T11:02:41.954Z,63.27
2022-07-29T11:05:15.180Z,63.12
2022-07-29T11:08:20.237Z,63.75
2022-07-29T11:10:53.753Z,63.20
2022-07-29T11:13:49.009Z,63.34
2022-07-29T11:16:17.517Z,61.81
2022-07-29T11:19:13.344Z,61.63
2022-07-29T11:21:49.040Z,61.74
2022-07-29T11:24:30.482Z,61.74
2022-07-29T11:27:19.936Z,58.99
2022-07-29T11:29:52.381Z,60.17
2022-07-29T11:32:23.337Z,59.86
2022-07-29T11:35:17.221Z,59.98
2022-07-29T11:38:06.456Z,58.87
2022-07-29T11:40:34.174Z,58.85
2022-07-29T11:43:01.911Z,56.87
2022-07-29T11:45:49.127Z,57.58
2022-07-29T11:48:29.034Z,56.49
2022-07-29T11:51:00.914Z,57.54
2022-07-29T11:53:33.029Z,57.74
2022-07-29T11:56:02.723Z,57.83
2022-07-29T11:58:32.030Z,57.84
2022-07-29T12:01:04.128Z,57.96
2022-07-29T12:03:35.979Z,58.11
2022-07-29T12:06:18.613Z,57.96
2022-07-29T12:08:49.110Z,57.47
2022-07-29T12:11:23.480Z,57.90
2022-07-29T12:13:54.674Z,57.66
2022-07-29T12:16:27.883Z,57.32
2022-07-29T12:19:02.863Z,57.21
2022-07-29T12:21:32.140Z,57.07
2022-07-29T12:24:08.939Z,57.62
2022-07-29T12:26:37.520Z,58.13
2022-07-29T12:29:08.479Z,58.13
2022-07-29T12:31:45.311Z,57.96
2022-07-29T12:34:15.438Z,58.05
2022-07-29T12:36:44.868Z,58.34
2022-07-29T12:39:13.566Z,58.59
2022-07-29T12:41:41.379Z,59.16
2022-07-29T12:44:09.282Z,59.76
2022-07-29T12:46:37.395Z,60.29
2022-07-29T12:49:07.419Z,60.71
2022-07-29T12:51:39.700Z,61.24
2022-07-29T12:54:13.085Z,61.56
2022-07-29T12:56:43.687Z,61.91
2022-07-29T12:59:24.678Z,61.93
2022-07-29T13:01:54.040Z,62.12
2022-07-29T13:04:33.067Z,62.25
2022-07-29T13:07:04.535Z,62.52
2022-07-29T13:09:44.365Z,62.33
2022-07-29T13:12:14.951Z,62.62
2022-07-29T13:14:47.437Z,62.67
2022-07-29T13:17:24.935Z,62.86
2022-07-29T13:19:53.416Z,63.02
2022-07-29T13:22:23.618Z,62.97
2022-07-29T13:24:56.792Z,63.35
2022-07-29T13:27:27.460Z,63.51
2022-07-29T13:29:58.610Z,63.67
2022-07-29T13:32:28.884Z,63.81
2022-07-29T13:35:01.647Z,63.72
2022-07-29T13:37:35.004Z,63.71
2022-07-29T13:40:05.141Z,63.66
2022-07-29T13:42:34.541Z,63.50
2022-07-29T13:45:02.763Z,63.73
2022-07-29T13:47:32.727Z,63.77
2022-07-29T13:50:06.221Z,63.73
2022-07-29T13:52:35.536Z,63.80
2022-07-29T13:55:04.321Z,61.99
2022-07-29T13:57:32.284Z,62.00
2022-07-29T14:00:00.274Z,61.46
2022-07-29T14:02:28.082Z,60.68
2022-07-29T14:04:56.582Z,59.94
2022-07-29T14:07:25.026Z,58.70
2022-07-29T14:09:53.140Z,58.60
2022-07-29T14:12:21.127Z,58.35
2022-07-29T14:14:48.917Z,58.04
2022-07-29T14:17:17.555Z,57.83
2022-07-29T14:19:45.428Z,58.20
2022-07-29T14:22:13.117Z,58.07
2022-07-29T14:24:41.383Z,58.17
2022-07-29T14:27:10.610Z,58.35
2022-07-29T14:29:38.869Z,59.00
2022-07-29T14:32:09.064Z,60.91
2022-07-29T14:34:41.675Z,61.27
2022-07-29T14:37:16.040Z,61.42
2022-07-29T14:39:44.091Z,62.34
2022-07-29T14:42:13.183Z,62.92
2022-07-29T14:44:42.152Z,63.70
2022-07-29T14:47:10.323Z,64.42
2022-07-29T14:49:38.054Z,64.94
2022-07-29T14:52:06.240Z,66.18
2022-07-29T14:54:34.343Z,66.92
2022-07-29T14:57:02.055Z,67.66
2022-07-29T14:59:30.351Z,69.44
2022-07-29T15:01:58.528Z,70.78
2022-07-29T15:04:26.494Z,70.77
2022-07-29T15:06:54.201Z,72.09
2022-07-29T15:09:21.948Z,73.29
2022-07-29T15:11:49.708Z,73.67
2022-07-29T15:14:17.393Z,73.84
2022-07-29T15:16:46.641Z,74.51
2022-07-29T15:19:16.191Z,75.09
2022-07-29T15:21:48.656Z,75.76
2022-07-29T15:24:27.587Z,75.87
2022-07-29T15:26:55.689Z,76.01
2022-07-29T15:29:23.732Z,76.40
2022-07-29T15:31:51.519Z,76.83
2022-07-29T15:34:19.365Z,77.39
2022-07-29T15:36:52.378Z,77.65
2022-07-29T15:39:22.700Z,78.34
2022-07-29T15:41:51.236Z,78.79
2022-07-29T15:44:19.746Z,79.33
2022-07-29T15:47:04.814Z,80.01
2022-07-29T15:49:47.945Z,80.20
2022-07-29T15:52:25.206Z,80.75
2022-07-29T15:54:53.444Z,81.41
2022-07-29T15:57:21.291Z,81.43
2022-07-29T15:59:48.967Z,81.61
2022-07-29T16:02:16.770Z,82.22
2022-07-29T16:04:44.559Z,82.53
2022-07-29T16:07:12.259Z,82.21
2022-07-29T16:09:42.383Z,81.85
2022-07-29T16:12:15.298Z,81.93
2022-07-29T16:14:45.001Z,81.96
2022-07-29T16:17:14.306Z,82.19
2022-07-29T16:19:42.358Z,82.38
2022-07-29T16:22:10.105Z,82.59
2022-07-29T16:24:38.200Z,82.95
2022-07-29T16:27:06.238Z,82.94
2022-07-29T16:29:34.276Z,83.03
2022-07-29T16:32:02.098Z,83.38
2022-07-29T16:34:30.683Z,83.76
2022-07-29T16:36:58.897Z,83.58
2022-07-29T16:39:26.812Z,83.59
2022-07-29T16:41:58.287Z,84.00
2022-07-29T16:44:28.292Z,83.92
2022-07-29T16:46:58.665Z,83.84
2022-07-29T16:49:27.828Z,83.73
2022-07-29T16:51:55.960Z,84.08
2022-07-29T16:54:23.979Z,83.62
2022-07-29T16:56:51.764Z,83.43
2022-07-29T16:59:19.533Z,83.47
2022-07-29T17:01:47.299Z,83.37
2022-07-29T17:04:16.104Z,83.45
2022-07-29T17:06:43.974Z,83.90
2022-07-29T17:09:13.369Z,84.18
2022-07-29T17:11:52.882Z,83.89
2022-07-29T17:14:28.061Z,84.14
2022-07-29T17:17:01.186Z,84.09
2022-07-29T17:19:34.943Z,84.29
2022-07-29T17:22:12.630Z,84.54
2022-07-29T17:24:42.235Z,84.66
2022-07-29T17:27:11.263Z,84.52
2022-07-29T17:29:40.082Z,84.82
2022-07-29T17:32:10.080Z,84.77
2022-07-29T17:34:38.571Z,85.32
2022-07-29T17:37:07.904Z,85.05
2022-07-29T17:39:36.642Z,85.37
2022-07-29T17:42:05.637Z,85.49
2022-07-29T17:44:36.491Z,85.54
2022-07-29T17:47:05.065Z,85.28
2022-07-29T17:49:36.017Z,85.40
2022-07-29T17:52:04.694Z,85.28
2022-07-29T17:54:32.418Z,85.02
2022-07-29T17:57:00.599Z,84.72
2022-07-29T17:59:28.595Z,84.65
2022-07-29T18:01:56.351Z,84.37
2022-07-29T18:04:24.577Z,84.25
2022-07-29T18:06:52.650Z,84.02
2022-07-29T18:09:20.370Z,83.83
2022-07-29T18:11:49.825Z,83.60
2022-07-29T18:14:18.170Z,83.39
2022-07-29T18:16:46.008Z,83.12
2022-07-29T18:19:13.752Z,83.04
2022-07-29T18:21:51.288Z,82.93
2022-07-29T18:24:26.317Z,82.85
2022-07-29T18:26:54.550Z,82.80
2022-07-29T18:29:22.702Z,82.55
2022-07-29T18:31:50.605Z,82.41
2022-07-29T18:34:18.369Z,82.20
2022-07-29T18:36:46.905Z,81.84
2022-07-29T18:39:20.314Z,81.59
2022-07-29T18:41:50.181Z,81.38
2022-07-29T18:44:19.196Z,81.28
2022-07-29T18:46:47.899Z,81.02
2022-07-29T18:49:16.091Z,80.83
2022-07-29T18:51:44.180Z,80.77
2022-07-29T18:54:11.891Z,80.88
2022-07-29T18:56:39.737Z,80.76
2022-07-29T18:59:08.426Z,80.77
2022-07-29T19:01:36.352Z,80.91
2022-07-29T19:04:04.605Z,80.78
2022-07-29T19:06:32.285Z,80.63
2022-07-29T19:08:59.942Z,80.32
2022-07-29T19:11:27.644Z,79.97
2022-07-29T19:13:55.435Z,79.91
2022-07-29T19:16:23.190Z,80.00
2022-07-29T19:18:51.070Z,80.09
2022-07-29T19:21:18.937Z,80.03
2022-07-29T19:24:02.130Z,80.08
2022-07-29T19:26:37.579Z,80.21
2022-07-29T19:29:05.654Z,80.29
2022-07-29T19:31:33.672Z,80.78
2022-07-29T19:34:01.438Z,80.75
2022-07-29T19:36:29.372Z,80.82
2022-07-29T19:38:57.125Z,80.47
2022-07-29T19:41:24.906Z,80.16
2022-07-29T19:43:53.201Z,80.11
2022-07-29T19:46:22.736Z,79.86
2022-07-29T19:48:51.430Z,79.80
2022-07-29T19:51:19.195Z,79.57
2022-07-29T19:53:46.884Z,79.50
2022-07-29T19:56:14.913Z,79.68
2022-07-29T19:58:42.938Z,79.65
2022-07-29T20:01:12.442Z,79.74
2022-07-29T20:03:43.375Z,79.78
2022-07-29T20:06:11.142Z,79.46
2022-07-29T20:08:38.831Z,79.12
2022-07-29T20:11:07.124Z,79.09
2022-07-29T20:13:36.328Z,78.95
2022-07-29T20:16:06.751Z,78.99
2022-07-29T20:18:34.577Z,78.79
2022-07-29T20:21:02.542Z,78.61
2022-07-29T20:23:33.461Z,78.42
2022-07-29T20:26:01.459Z,78.41
2022-07-29T20:28:29.211Z,78.33
2022-07-29T20:30:56.997Z,78.45
2022-07-29T20:33:24.720Z,78.38
2022-07-29T20:35:52.471Z,78.23
2022-07-29T20:38:20.134Z,78.57
2022-07-29T20:40:47.901Z,79.02
2022-07-29T20:43:15.599Z,78.92
2022-07-29T20:45:43.463Z,78.98
2022-07-29T20:48:11.654Z,79.86
2022-07-29T20:50:39.340Z,78.90
2022-07-29T20:53:07.238Z,78.55
2022-07-29T20:55:35.144Z,78.54
2022-07-29T20:58:03.029Z,78.75
2022-07-29T21:00:30.792Z,79.05
2022-07-29T21:02:58.847Z,79.31
2022-07-29T21:05:26.705Z,79.15
2022-07-29T21:07:57.989Z,79.35
2022-07-29T21:10:26.765Z,79.26
2022-07-29T21:12:54.488Z,79.33
2022-07-29T21:15:23.054Z,79.20
2022-07-29T21:17:53.063Z,79.20
2022-07-29T21:20:21.661Z,79.41
2022-07-29T21:22:49.341Z,79.60
2022-07-29T21:25:17.115Z,79.59
2022-07-29T21:28:03.329Z,79.64
2022-07-29T21:30:31.038Z,79.73
2022-07-29T21:32:58.834Z,79.96
2022-07-29T21:36:01.944Z,79.98
2022-07-29T21:38:14.283Z,80.12
2022-07-29T21:40:42.002Z,80.30
2022-07-29T21:43:09.746Z,80.61
2022-07-29T21:45:37.429Z,80.74
2022-07-29T21:48:06.132Z,80.88
2022-07-29T21:50:34.238Z,81.18
2022-07-29T21:53:02.085Z,81.45
2022-07-29T21:55:32.519Z,82.41
2022-07-29T21:58:00.286Z,81.86
2022-07-29T22:00:28.067Z,82.05
2022-07-29T22:02:56.057Z,82.37
2022-07-29T22:05:23.755Z,82.38
2022-07-29T22:07:54.688Z,82.46
2022-07-29T22:10:26.754Z,82.72
2022-07-29T22:12:56.567Z,82.78
2022-07-29T22:15:25.392Z,82.88
2022-07-29T22:17:53.348Z,82.94
2022-07-29T22:20:21.584Z,83.01
2022-07-29T22:22:49.462Z,83.16
2022-07-29T22:25:17.212Z,83.31
2022-07-29T22:27:45.079Z,83.46
2022-07-29T22:30:13.541Z,83.52
2022-07-29T22:32:41.497Z,83.64
2022-07-29T22:35:09.836Z,83.65
2022-07-29T22:37:37.942Z,83.74
2022-07-29T22:40:06.582Z,83.79
2022-07-29T22:42:35.140Z,83.80
2022-07-29T22:45:03.202Z,83.84
2022-07-29T22:47:46.100Z,83.95
2022-07-29T22:50:15.761Z,83.98
2022-07-29T22:52:43.494Z,84.10
2022-07-29T22:55:11.350Z,84.21
2022-07-29T22:57:39.312Z,84.28
2022-07-29T23:00:08.190Z,84.31
2022-07-29T23:02:37.328Z,84.34
2022-07-29T23:05:05.782Z,84.37
2022-07-29T23:07:34.391Z,84.37
2022-07-29T23:10:02.478Z,84.42
2022-07-29T23:12:30.233Z,84.43
2022-07-29T23:14:57.938Z,84.36
2022-07-29T23:17:25.592Z,84.37
2022-07-29T23:19:53.214Z,84.43
2022-07-29T23:22:20.963Z,84.55
2022-07-29T23:24:48.618Z,84.50
2022-07-29T23:27:16.309Z,84.49
2022-07-29T23:29:44.044Z,84.45
2022-07-29T23:32:11.708Z,84.40
2022-07-29T23:34:39.381Z,84.26
2022-07-29T23:37:07.122Z,84.27
2022-07-29T23:39:34.986Z,84.27
2022-07-29T23:42:03.954Z,84.20
2022-07-29T23:44:31.633Z,85.08
2022-07-29T23:46:59.633Z,84.38
2022-07-29T23:49:27.837Z,84.35
2022-07-29T23:51:55.532Z,84.32
2022-07-29T23:54:23.250Z,84.34
2022-07-29T23:56:50.914Z,84.39
2022-07-29T23:59:18.620Z,84.33
